Time;durP1;ratioP1;P1;durP2;ratioP2;P2;SDS_P1;SDS_P2;PMS_P1;PMS_P2;Temp;Humidity;BMP_temperature;BMP_pressure;BME280_temperature;BME280_humidity;BME280_pressure;Samples;Min_cycle;Max_cycle;Signal;HPM_P1;HPM_P2
2021/10/29 00:02:16;;;;;;;2.45;1.92;;;;;;;;;;4900410;29;20795;-84
2021/10/29 00:04:42;;;;;;;2.80;1.95;;;;;;;;;;4880859;29;20033;-84
2021/10/29 00:07:09;;;;;;;6.93;2.53;;;;;;;;;;4869247;29;20047;-84
2021/10/29 00:09:35;;;;;;;2.53;2.20;;;;;;;;;;4881278;29;20402;-84
2021/10/29 00:12:02;;;;;;;6.20;2.53;;;;;;;;;;4899194;29;20028;-84
2021/10/29 00:14:31;;;;;;;3.20;2.83;;;;;;;;;;4898010;29;20501;-84
2021/10/29 00:16:57;;;;;;;4.82;2.28;;;;;;;;;;4888774;29;20540;-83
2021/10/29 00:19:23;;;;;;;5.07;2.95;;;;;;;;;;4877123;29;20032;-85
2021/10/29 00:21:49;;;;;;;6.85;3.15;;;;;;;;;;4901045;29;20039;-83
2021/10/29 00:24:15;;;;;;;3.78;2.95;;;;;;;;;;4902137;29;20111;-85
2021/10/29 00:26:42;;;;;;;2.85;2.30;;;;;;;;;;4893531;29;20048;-85
2021/10/29 00:29:09;;;;;;;3.97;2.92;;;;;;;;;;4890833;29;20039;-84
2021/10/29 00:31:35;;;;;;;5.60;2.45;;;;;;;;;;4874664;29;20071;-83
2021/10/29 00:34:01;;;;;;;2.88;2.35;;;;;;;;;;4904367;29;20032;-85
2021/10/29 00:36:27;;;;;;;4.35;2.25;;;;;;;;;;4892093;29;20135;-84
2021/10/29 00:38:53;;;;;;;1.73;1.42;;;;;;;;;;4895888;29;20051;-84
2021/10/29 00:41:19;;;;;;;6.50;3.10;;;;;;;;;;4897935;29;20032;-84
2021/10/29 00:43:45;;;;;;;5.10;2.75;;;;;;;;;;4900208;29;20160;-84
2021/10/29 00:46:11;;;;;;;3.42;2.25;;;;;;;;;;4896155;29;20111;-84
2021/10/29 00:48:37;;;;;;;4.85;3.05;;;;;;;;;;4872574;29;20521;-84
2021/10/29 00:51:04;;;;;;;4.25;2.55;;;;;;;;;;4905673;29;20433;-85
2021/10/29 00:53:31;;;;;;;5.32;2.78;;;;;;;;;;4894261;29;20421;-84
2021/10/29 00:55:57;;;;;;;6.95;2.80;;;;;;;;;;4874303;29;20182;-84
2021/10/29 00:58:23;;;;;;;3.35;2.17;;;;;;;;;;4876501;29;20025;-83
2021/10/29 01:00:49;;;;;;;6.27;1.80;;;;;;;;;;4891594;29;20766;-85
2021/10/29 01:03:16;;;;;;;4.55;2.03;;;;;;;;;;4904140;29;20029;-84
2021/10/29 01:05:43;;;;;;;4.57;2.20;;;;;;;;;;4880089;29;20040;-84
2021/10/29 01:08:10;;;;;;;8.03;2.73;;;;;;;;;;4895969;29;20116;-84
2021/10/29 01:10:36;;;;;;;4.90;2.40;;;;;;;;;;4895217;29;20045;-85
2021/10/29 01:13:02;;;;;;;5.28;2.67;;;;;;;;;;4899435;29;20116;-85
2021/10/29 01:15:28;;;;;;;6.22;2.20;;;;;;;;;;4895534;29;20047;-85
2021/10/29 01:17:54;;;;;;;6.53;2.85;;;;;;;;;;4894582;29;20033;-84
2021/10/29 01:20:21;;;;;;;3.83;2.30;;;;;;;;;;4897294;29;20283;-83
2021/10/29 01:22:47;;;;;;;3.17;2.65;;;;;;;;;;4898935;29;20083;-85
2021/10/29 01:25:13;;;;;;;5.97;3.38;;;;;;;;;;4903538;29;20040;-84
2021/10/29 01:27:40;;;;;;;7.05;2.58;;;;;;;;;;4895719;29;20047;-84
2021/10/29 01:30:07;;;;;;;3.30;2.42;;;10.80;79.10;;;;;;4889090;29;20409;-84
2021/10/29 01:32:33;;;;;;;6.28;2.95;;;;;;;;;;4895139;29;20040;-84
2021/10/29 01:34:59;;;;;;;3.55;2.33;;;;;;;;;;4898648;29;20043;-84
2021/10/29 01:37:25;;;;;;;7.60;2.42;;;10.80;79.70;;;;;;4891370;29;20040;-84
2021/10/29 01:39:51;;;;;;;6.25;2.88;;;;;;;;;;4897815;29;20100;-84
2021/10/29 01:42:17;;;;;;;3.97;2.10;;;;;;;;;;4899445;29;20043;-84
2021/10/29 01:44:44;;;;;;;3.67;2.28;;;;;;;;;;4893590;29;20033;-84
2021/10/29 01:47:10;;;;;;;3.13;1.48;;;;;;;;;;4874515;29;20032;-84
2021/10/29 01:49:39;;;;;;;2.67;1.60;;;11.30;79.50;;;;;;4897163;29;20390;-85
2021/10/29 01:52:05;;;;;;;4.30;2.83;;;;;;;;;;4894295;29;20143;-84
2021/10/29 01:54:31;;;;;;;3.53;2.22;;;;;;;;;;4899088;29;20079;-84
2021/10/29 01:56:58;;;;;;;3.92;2.40;;;;;;;;;;4900407;29;20639;-85
2021/10/29 01:59:24;;;;;;;3.58;2.35;;;;;;;;;;4876585;29;20082;-85
2021/10/29 02:01:50;;;;;;;5.10;2.90;;;;;;;;;;4895576;29;20494;-83
2021/10/29 02:04:16;;;;;;;7.55;2.95;;;;;;;;;;4898085;29;20037;-83
2021/10/29 02:06:42;;;;;;;5.07;2.45;;;;;;;;;;4893380;29;20513;-84
2021/10/29 02:09:08;;;;;;;3.13;1.90;;;;;;;;;;4886661;29;20036;-84
2021/10/29 02:11:34;;;;;;;4.28;2.92;;;;;;;;;;4899158;29;20043;-85
2021/10/29 02:14:00;;;;;;;3.88;2.50;;;;;;;;;;4879316;29;20028;-84
2021/10/29 02:16:26;;;;;;;4.18;2.33;;;;;;;;;;4893810;29;20056;-85
2021/10/29 02:18:52;;;;;;;2.55;2.22;;;;;;;;;;4891725;29;20505;-85
2021/10/29 02:21:18;;;;;;;4.30;1.98;;;;;;;;;;4900276;29;20032;-85
2021/10/29 02:23:44;;;;;;;4.95;2.05;;;;;;;;;;4898709;29;20028;-84
2021/10/29 02:26:10;;;;;;;2.17;2.00;;;;;;;;;;4895076;29;20045;-84
2021/10/29 02:28:38;;;;;;;4.43;2.85;;;;;;;;;;4901761;29;20024;-84
2021/10/29 02:31:04;;;;;;;4.28;1.92;;;;;;;;;;4902160;29;20077;-84
2021/10/29 02:33:30;;;;;;;4.05;2.05;;;;;;;;;;4902855;29;20058;-84
2021/10/29 02:35:56;;;;;;;5.00;2.78;;;;;;;;;;4894601;29;20461;-84
2021/10/29 02:38:22;;;;;;;2.60;1.42;;;;;;;;;;4875407;29;20039;-84
2021/10/29 02:40:48;;;;;;;5.80;2.17;;;;;;;;;;4897174;29;20047;-84
2021/10/29 02:43:14;;;;;;;2.25;1.77;;;;;;;;;;4881336;29;20056;-84
2021/10/29 02:45:40;;;;;;;3.75;1.70;;;;;;;;;;4896824;29;20131;-84
2021/10/29 02:48:06;;;;;;;1.48;1.38;;;;;;;;;;4897285;29;20029;-83
2021/10/29 02:50:33;;;;;;;2.42;1.55;;;;;;;;;;4884625;29;20051;-84
2021/10/29 02:52:59;;;;;;;6.82;2.28;;;;;;;;;;4901366;29;20028;-85
2021/10/29 02:55:26;;;;;;;4.07;1.88;;;;;;;;;;4893904;29;20107;-84
2021/10/29 02:57:52;;;;;;;1.90;1.20;;;;;;;;;;4894151;29;20033;-84
2021/10/29 03:00:18;;;;;;;4.85;2.10;;;;;;;;;;4898320;29;20095;-84
2021/10/29 03:02:45;;;;;;;2.83;1.50;;;;;;;;;;4895410;29;20028;-84
2021/10/29 03:05:12;;;;;;;2.47;1.58;;;;;;;;;;4895932;29;20124;-84
2021/10/29 03:07:38;;;;;;;4.80;2.23;;;;;;;;;;4888727;29;20104;-84
2021/10/29 03:10:07;;;;;;;4.80;1.73;;;11.10;80.00;;;;;;4877228;29;20777;-84
2021/10/29 03:12:33;;;;;;;4.18;2.05;;;;;;;;;;4899000;29;20040;-84
2021/10/29 03:14:59;;;;;;;5.93;1.95;;;;;;;;;;4897739;29;20028;-84
2021/10/29 03:17:25;;;;;;;3.88;1.92;;;;;;;;;;4890764;29;20600;-84
2021/10/29 03:19:51;;;;;;;3.90;1.77;;;;;;;;;;4874835;29;20016;-84
2021/10/29 03:22:17;;;;;;;5.38;2.58;;;;;;;;;;4895615;29;20040;-84
2021/10/29 03:24:43;;;;;;;5.15;1.85;;;;;;;;;;4896853;29;20029;-84
2021/10/29 03:27:09;;;;;;;4.00;1.90;;;;;;;;;;4897113;29;20063;-84
2021/10/29 03:29:37;;;;;;;5.03;2.28;;;;;;;;;;4899922;29;20047;-84
2021/10/29 03:32:03;;;;;;;7.15;1.70;;;;;;;;;;4895767;29;20124;-84
2021/10/29 03:34:29;;;;;;;2.58;1.83;;;;;;;;;;4880851;29;20032;-83
2021/10/29 03:36:56;;;;;;;1.85;1.63;;;;;;;;;;4890244;29;20048;-84
2021/10/29 03:39:32;;;;;;;8.00;1.67;;;;;;;;;;4893564;29;20128;-84
2021/10/29 03:42:02;;;;;;;3.83;2.90;;;;;;;;;;4902332;29;20088;-83
2021/10/29 03:44:43;;;;;;;2.20;2.00;;;;;;;;;;4895895;29;20124;-84
2021/10/29 03:47:10;;;;;;;1.83;1.23;;;;;;;;;;4877959;29;20064;-84
2021/10/29 03:49:47;;;;;;;2.25;1.35;;;;;;;;;;4895711;29;20051;-84
2021/10/29 03:52:29;;;;;;;3.70;1.97;;;;;;;;;;4868240;29;20604;-84
2021/10/29 03:54:58;;;;;;;2.08;1.35;;;;;;;;;;4888628;29;20291;-83
2021/10/29 03:57:25;;;;;;;1.70;1.35;;;;;;;;;;4898815;29;20509;-83
2021/10/29 03:59:52;;;;;;;2.10;1.38;;;11.00;80.00;;;;;;4891270;29;20045;-84
2021/10/29 04:02:19;;;;;;;8.48;2.55;;;;;;;;;;4872633;29;20032;-83
2021/10/29 04:04:45;;;;;;;3.42;1.95;;;;;;;;;;4891751;29;20038;-83
2021/10/29 04:07:12;;;;;;;3.08;1.80;;;;;;;;;;4891600;29;20065;-84
2021/10/29 04:09:38;;;;;;;1.38;1.27;;;;;;;;;;4901143;29;20069;-84
2021/10/29 04:12:04;;;;;;;5.20;1.67;;;;;;;;;;4903715;29;20028;-85
2021/10/29 04:14:30;;;;;;;3.47;1.58;;;;;;;;;;4878814;29;20115;-84
2021/10/29 04:16:56;;;;;;;2.28;1.42;;;;;;;;;;4889457;29;20394;-84
2021/10/29 04:19:23;;;;;;;5.82;1.52;;;;;;;;;;4899577;29;20115;-83
2021/10/29 04:21:49;;;;;;;4.03;1.88;;;;;;;;;;4891214;29;20515;-84
2021/10/29 04:24:15;;;;;;;2.03;1.58;;;;;;;;;;4880971;29;20164;-84
2021/10/29 04:26:41;;;;;;;1.80;1.60;;;;;;;;;;4891732;29;20020;-83
2021/10/29 04:29:15;;;;;;;2.08;1.35;;;11.10;80.10;;;;;;4875746;29;20051;-84
2021/10/29 04:31:50;;;;;;;2.22;1.80;;;11.10;79.10;;;;;;4891675;29;20028;-84
2021/10/29 04:34:23;;;;;;;3.45;1.75;;;;;;;;;;4900109;29;20088;-83
2021/10/29 04:36:50;;;;;;;3.17;1.40;;;;;;;;;;4891464;29;20406;-84
2021/10/29 04:39:16;;;;;;;3.50;1.63;;;;;;;;;;4874171;29;20039;-83
2021/10/29 04:41:43;;;;;;;4.15;2.03;;;;;;;;;;4891835;29;20033;-83
2021/10/29 04:44:09;;;;;;;3.10;1.40;;;;;;;;;;4877784;29;20047;-83
2021/10/29 04:46:35;;;;;;;4.82;2.15;;;;;;;;;;4894338;29;20409;-84
2021/10/29 04:49:02;;;;;;;5.25;1.85;;;;;;;;;;4897875;29;20581;-83
2021/10/29 04:51:28;;;;;;;1.85;1.73;;;;;;;;;;4894827;29;20064;-84
2021/10/29 04:53:55;;;;;;;1.95;1.60;;;;;;;;;;4902160;29;20402;-83
2021/10/29 04:56:21;;;;;;;3.27;1.60;;;;;;;;;;4901867;29;20139;-85
2021/10/29 04:58:47;;;;;;;3.53;2.60;;;;;;;;;;4894216;29;20036;-83
2021/10/29 05:01:13;;;;;;;4.40;2.47;;;;;;;;;;4877898;29;20039;-84
2021/10/29 05:03:39;;;;;;;2.50;1.92;;;;;;;;;;4876863;29;20029;-84
2021/10/29 05:06:05;;;;;;;4.45;1.98;;;;;;;;;;4900464;29;20520;-83
2021/10/29 05:08:31;;;;;;;2.97;2.10;;;;;;;;;;4895164;29;20048;-85
2021/10/29 05:10:57;;;;;;;1.95;1.73;;;;;;;;;;4894634;29;20024;-84
2021/10/29 05:13:23;;;;;;;1.70;1.58;;;;;;;;;;4897542;29;20611;-83
2021/10/29 05:15:49;;;;;;;1.90;1.50;;;;;;;;;;4893712;29;20506;-83
2021/10/29 05:18:17;;;;;;;2.75;1.92;;;;;;;;;;4875756;29;20092;-83
2021/10/29 05:20:43;;;;;;;1.70;1.52;;;10.80;80.40;;;;;;4894259;29;20525;-84
2021/10/29 05:23:10;;;;;;;2.45;1.60;;;;;;;;;;4893810;29;20119;-84
2021/10/29 05:25:36;;;;;;;1.95;1.48;;;;;;;;;;4896455;29;20040;-83
2021/10/29 05:28:02;;;;;;;2.38;1.75;;;;;;;;;;4898543;29;20055;-83
2021/10/29 05:30:28;;;;;;;4.03;1.90;;;;;;;;;;4903498;29;20044;-84
2021/10/29 05:32:54;;;;;;;5.43;1.35;;;;;;;;;;4886214;29;20577;-84
2021/10/29 05:35:20;;;;;;;3.72;2.55;;;;;;;;;;4893882;29;20044;-84
2021/10/29 05:37:46;;;;;;;3.28;2.42;;;;;;;;;;4872885;29;20072;-83
2021/10/29 05:40:12;;;;;;;3.30;1.80;;;;;;;;;;4886883;29;20116;-83
2021/10/29 05:42:39;;;;;;;2.92;1.88;;;;;;;;;;4891446;29;20039;-83
2021/10/29 05:45:06;;;;;;;2.80;2.20;;;;;;;;;;4897424;29;20032;-82
2021/10/29 05:47:32;;;;;;;2.92;2.00;;;;;;;;;;4895022;29;20032;-84
2021/10/29 05:49:58;;;;;;;2.95;1.95;;;;;;;;;;4894419;29;20518;-83
2021/10/29 05:52:27;;;;;;;1.67;1.58;;;;;;;;;;4896283;29;20135;-83
2021/10/29 05:57:23;;;;;;;3.40;2.05;;;;;;;;;;4891266;29;20561;-84
2021/10/29 05:59:49;;;;;;;2.58;1.38;;;;;;;;;;4890294;29;20020;-84
2021/10/29 06:02:15;;;;;;;1.52;1.20;;;;;;;;;;4893718;29;20059;-85
2021/10/29 06:04:41;;;;;;;4.45;1.60;;;;;;;;;;4894195;29;20024;-85
2021/10/29 06:07:07;;;;;;;2.20;1.15;;;;;;;;;;4892512;29;20068;-85
2021/10/29 06:09:33;;;;;;;1.75;1.25;;;;;;;;;;4877286;29;20032;-84
2021/10/29 06:11:59;;;;;;;6.85;1.55;;;;;;;;;;4877503;29;20096;-85
2021/10/29 06:14:26;;;;;;;4.30;1.70;;;;;;;;;;4893992;29;20044;-85
2021/10/29 06:16:55;;;;;;;4.15;2.10;;;;;;;;;;4893931;29;20040;-84
2021/10/29 06:19:22;;;;;;;7.07;2.65;;;;;;;;;;4894029;29;20410;-85
2021/10/29 06:21:57;;;;;;;4.35;2.00;;;;;;;;;;4893835;29;20778;-86
2021/10/29 06:24:25;;;;;;;2.97;2.05;;;;;;;;;;4897724;29;20039;-93
2021/10/29 06:29:23;;;;;;;2.15;1.45;;;;;;;;;;4895137;29;20498;-91
2021/10/29 06:31:49;;;;;;;3.78;1.77;;;;;;;;;;4897137;29;20024;-92
2021/10/29 06:34:15;;;;;;;2.60;1.25;;;;;;;;;;4896928;29;20032;-92
2021/10/29 06:36:41;;;;;;;5.15;1.50;;;;;;;;;;4899624;29;20051;-92
2021/10/29 06:39:08;;;;;;;5.82;3.33;;;;;;;;;;4896520;29;20037;-92
2021/10/29 06:41:34;;;;;;;3.93;1.80;;;;;;;;;;4897550;29;20455;-91
2021/10/29 06:46:40;;;;;;;11.65;2.33;;;;;;;;;;4897503;29;20040;-91
2021/10/29 06:49:09;;;;;;;4.18;2.10;;;;;;;;;;4897576;29;20033;-91
2021/10/29 07:03:13;;;;;;;7.35;2.25;;;;;;;;;;4897862;29;20127;-93
2021/10/29 07:41:05;;;;;;;1.75;1.17;;;15.40;69.40;;;;;;4897540;29;20051;-92
2021/10/29 07:45:58;;;;;;;2.25;1.38;;;;;;;;;;4895969;29;20049;-92
2021/10/29 07:48:24;;;;;;;4.90;1.67;;;;;;;;;;4878488;29;20032;-90
2021/10/29 07:50:50;;;;;;;6.25;1.27;;;;;;;;;;4879568;29;20052;-92
2021/10/29 07:53:16;;;;;;;4.18;1.27;;;;;;;;;;4897112;29;20017;-92
2021/10/29 07:55:42;;;;;;;2.28;1.27;;;;;;;;;;4882062;29;20072;-93
2021/10/29 07:58:08;;;;;;;1.20;0.90;;;;;;;;;;4895645;29;20031;-92
2021/10/29 08:00:34;;;;;;;5.13;1.65;;;;;;;;;;4894468;29;20028;-92
2021/10/29 08:03:05;;;;;;;2.40;1.63;;;;;;;;;;4880349;29;20040;-94
2021/10/29 08:05:31;;;;;;;2.45;1.40;;;;;;;;;;4877521;29;20099;-91
2021/10/29 08:07:57;;;;;;;2.58;1.23;;;;;;;;;;4890047;29;20136;-93
2021/10/29 08:10:23;;;;;;;3.00;1.48;;;;;;;;;;4874487;29;20220;-92
2021/10/29 08:12:49;;;;;;;4.70;1.98;;;;;;;;;;4881789;29;20032;-92
2021/10/29 08:15:15;;;;;;;11.18;2.20;;;;;;;;;;4879198;29;20044;-90
2021/10/29 08:17:42;;;;;;;7.10;1.58;;;;;;;;;;4900094;29;20032;-92
2021/10/29 08:20:09;;;;;;;2.58;0.88;;;;;;;;;;4900316;29;20107;-91
2021/10/29 08:22:36;;;;;;;;;;;17.60;57.50;;;;;;4899694;29;20033;-93
2021/10/29 08:25:02;;;;;;;2.33;0.98;;;;;;;;;;4905701;29;19955;-92
2021/10/29 08:27:29;;;;;;;4.70;1.08;;;;;;;;;;4884278;29;20391;-94
2021/10/29 08:29:55;;;;;;;4.45;1.58;;;;;;;;;;4897648;29;20029;-91
2021/10/29 08:32:21;;;;;;;1.07;0.87;;;;;;;;;;4899727;29;20052;-90
2021/10/29 08:34:47;;;;;;;4.80;1.20;;;;;;;;;;4899299;29;20033;-95
2021/10/29 08:37:15;;;;;;;2.50;1.13;;;;;;;;;;4898259;29;20506;-91
2021/10/29 08:39:41;;;;;;;1.30;1.00;;;;;;;;;;4888759;29;20146;-92
2021/10/29 08:42:07;;;;;;;1.30;0.82;;;;;;;;;;4899766;29;20092;-92
2021/10/29 08:44:34;;;;;;;2.97;1.07;;;;;;;;;;4878042;29;20029;-92
2021/10/29 08:47:02;;;;;;;0.70;0.50;;;;;;;;;;4900171;29;20422;-90
2021/10/29 08:49:30;;;;;;;0.70;0.70;;;;;;;;;;4899395;29;20043;-93
2021/10/29 08:51:57;;;;;;;4.03;1.73;;;;;;;;;;4899380;29;20490;-92
2021/10/29 08:54:23;;;;;;;1.67;1.10;;;;;;;;;;4882503;29;20154;-93
2021/10/29 08:56:50;;;;;;;1.38;0.77;;;;;;;;;;4899774;29;20068;-92
2021/10/29 08:59:20;;;;;;;1.33;0.68;;;;;;;;;;4898378;29;20032;-92
2021/10/29 09:04:46;;;;;;;1.38;0.70;;;;;;;;;;4892542;29;20036;-92
2021/10/29 09:33:06;;;;;;;0.82;0.77;;;18.30;55.40;;;;;;4897788;29;20048;-90
2021/10/29 09:35:35;;;;;;;1.35;0.98;;;18.30;55.70;;;;;;4896972;29;20049;-92
2021/10/29 09:38:04;;;;;;;3.92;1.00;;;;;;;;;;4898597;29;20044;-91
2021/10/29 09:40:35;;;;;;;3.58;0.50;;;18.30;55.30;;;;;;4897954;29;20025;-93
2021/10/29 09:43:11;;;;;;;2.55;1.00;;;18.30;54.10;;;;;;4881210;29;20034;-92
2021/10/29 09:45:38;;;;;;;2.25;1.35;;;;;;;;;;4897189;29;20037;-89
2021/10/29 09:48:21;;;;;;;2.38;0.90;;;18.20;53.80;;;;;;4895698;29;20040;-92
2021/10/29 09:50:55;;;;;;;0.45;0.40;;;18.10;53.30;;;;;;4896874;29;20051;-90
2021/10/29 09:53:49;;;;;;;2.00;0.85;;;;;;;;;;4895747;29;20073;-91
2021/10/29 09:58:44;;;;;;;1.35;0.80;;;;;;;;;;4889462;29;20089;-94
2021/10/29 10:01:10;;;;;;;1.60;0.93;;;;;;;;;;4905027;29;20081;-93
2021/10/29 10:03:40;;;;;;;1.23;0.80;;;;;;;;;;4900668;29;20024;-90
2021/10/29 10:06:06;;;;;;;1.90;0.70;;;;;;;;;;4900537;29;20035;-90
2021/10/29 10:08:34;;;;;;;0.95;0.60;;;17.90;54.10;;;;;;4917251;29;20030;-93
2021/10/29 10:11:01;;;;;;;1.00;0.55;;;;;;;;;;4897727;29;20418;-90
2021/10/29 10:13:27;;;;;;;0.40;0.40;;;;;;;;;;4889793;29;20036;-90
2021/10/29 10:15:56;;;;;;;1.30;0.80;;;17.80;53.60;;;;;;4916654;29;20040;-93
2021/10/29 10:18:23;;;;;;;1.33;0.77;;;;;;;;;;4917490;29;20036;-90
2021/10/29 10:20:49;;;;;;;1.20;0.73;;;;;;;;;;4916253;29;20024;-92
2021/10/29 10:23:19;;;;;;;1.17;0.80;;;;;;;;;;4917460;29;20111;-91
2021/10/29 10:28:59;;;;;;;0.75;0.75;;;17.80;54.10;;;;;;4916931;29;20040;-90
2021/10/29 10:48:09;;;;;;;1.88;0.93;;;18.50;53.70;;;;;;4913366;29;20477;-92
2021/10/29 10:50:46;;;;;;;2.55;1.05;;;18.70;52.70;;;;;;4916696;29;20119;-94
2021/10/29 10:53:38;;;;;;;1.55;0.90;;;;;;;;;;4914085;29;20032;-92
2021/10/29 10:58:46;;;;;;;2.95;1.17;;;;;;;;;;4914912;29;20036;-92
2021/10/29 11:12:49;;;;;;;3.88;1.30;;;;;;;;;;4839078;29;20043;-92
2021/10/29 11:15:18;;;;;;;2.13;0.82;;;;;;;;;;4837847;29;20037;-92
2021/10/29 11:17:45;;;;;;;2.05;0.90;;;;;;;;;;4839421;29;20041;-91
2021/10/29 11:20:12;;;;;;;;;;;19.40;48.90;;;;;;4840233;29;20030;-90
2021/10/29 11:22:45;;;;;;;2.17;1.15;;;;;;;;;;4831308;29;20467;-91
2021/10/29 11:25:14;;;;;;;2.45;1.10;;;;;;;;;;4825313;29;20038;-93
2021/10/29 11:27:42;;;;;;;2.40;1.67;;;;;;;;;;4839449;29;20033;-92
2021/10/29 11:30:08;;;;;;;;;;;18.50;51.20;;;;;;4837757;29;20071;-91
2021/10/29 11:32:34;;;;;;;3.17;0.80;;;;;;;;;;4834396;29;19917;-92
2021/10/29 11:35:02;;;;;;;1.17;0.90;;;;;;;;;;4839634;29;20030;-92
2021/10/29 11:37:32;;;;;;;1.00;0.75;;;;;;;;;;4839361;29;20069;-93
2021/10/29 11:39:58;;;;;;;3.55;0.75;;;;;;;;;;4838122;29;20129;-93
2021/10/29 11:42:25;;;;;;;4.95;1.33;;;;;;;;;;4841536;29;20087;-93
2021/10/29 11:44:51;;;;;;;6.85;1.02;;;;;;;;;;4913822;29;20709;-93
2021/10/29 11:47:18;;;;;;;4.68;0.80;;;;;;;;;;4913634;29;20044;-92
2021/10/29 11:49:43;;;;;;;4.25;0.90;;;;;;;;;;4905053;29;20028;-91
2021/10/29 11:52:10;;;;;;;1.73;0.75;;;;;;;;;;4895541;29;20470;-92
2021/10/29 11:54:38;;;;;;;1.20;0.77;;;;;;;;;;4882401;29;20084;-93
2021/10/29 12:07:21;;;;;;;3.92;1.10;;;19.50;49.00;;;;;;4910305;29;20051;-91
2021/10/29 12:09:48;;;;;;;0.98;0.70;;;;;;;;;;4899254;29;20119;-92
2021/10/29 12:12:17;;;;;;;0.65;0.60;;;;;;;;;;4899072;29;20126;-93
2021/10/29 12:14:45;;;;;;;2.03;0.80;;;;;;;;;;4908588;29;20068;-91
2021/10/29 12:17:20;;;;;;;1.60;0.80;;;;;;;;;;4911724;29;20513;-92
2021/10/29 12:19:49;;;;;;;3.60;0.98;;;;;;;;;;4909311;29;20641;-93
2021/10/29 12:24:56;;;;;;;2.05;0.80;;;;;;;;;;4917379;29;20818;-92
2021/10/29 12:27:28;;;;;;;1.73;0.77;;;;;;;;;;4912518;29;20032;-92
2021/10/29 12:30:14;;;;;;;1.90;0.88;;;;;;;;;;4913553;29;20044;-92
2021/10/29 13:03:09;;;;;;;2.67;0.95;;;;;;;;;;4914140;29;20043;-91
2021/10/29 13:05:35;;;;;;;1.70;0.90;;;;;;;;;;4902781;29;20034;-91
2021/10/29 13:08:17;;;;;;;1.83;0.68;;;;;;;;;;4899014;29;20265;-91
2021/10/29 13:10:43;;;;;;;1.80;1.05;;;;;;;;;;4911708;29;20035;-90
2021/10/29 13:13:16;;;;;;;1.35;1.25;;;;;;;;;;4899516;29;20025;-91
2021/10/29 13:15:42;;;;;;;1.30;1.05;;;;;;;;;;4917383;29;20111;-93
2021/10/29 13:18:12;;;;;;;1.88;1.40;;;;;;;;;;4903806;29;20075;-92
2021/10/29 13:37:56;;;;;;;1.67;1.40;;;;;;;;;;4787859;29;20043;-89
2021/10/29 13:51:20;;;;;;;1.17;0.70;;;;;;;;;;4803896;29;20150;-89
2021/10/29 14:32:31;;;;;;;1.02;0.73;;;;;;;;;;4839877;29;20030;-89
2021/10/29 14:34:59;;;;;;;1.55;1.23;;;;;;;;;;4840245;29;20038;-90
2021/10/29 14:37:41;;;;;;;1.17;0.73;;;;;;;;;;4839760;29;20933;-90
2021/10/29 14:42:57;;;;;;;2.58;0.80;;;;;;;;;;4838695;29;20038;-90
2021/10/29 14:45:37;;;;;;;1.50;0.93;;;;;;;;;;4843104;29;20040;-89
2021/10/29 15:04:35;;;;;;;1.92;1.20;;;;;;;;;;4924244;29;20142;-91
2021/10/29 15:07:00;;;;;;;2.85;1.00;;;;;;;;;;4893227;29;20032;-91
2021/10/29 15:25:46;;;;;;;3.47;1.38;;;;;;;;;;4915290;29;20167;-90
2021/10/29 15:28:23;;;;;;;2.22;1.42;;;;;;;;;;4897351;29;20520;-91
2021/10/29 15:31:09;;;;;;;5.97;1.80;;;;;;;;;;4911532;29;20028;-93
2021/10/29 15:41:52;;;;;;;10.40;1.73;;;;;;;;;;4915123;29;20039;-91
2021/10/29 15:44:27;;;;;;;3.80;1.83;;;;;;;;;;4915260;29;20734;-89
2021/10/29 15:47:02;;;;;;;4.65;1.02;;;;;;;;;;4913892;29;20095;-89
2021/10/29 15:52:05;;;;;;;2.97;1.08;;;;;;;;;;4915088;29;20060;-93
2021/10/29 15:54:38;;;;;;;4.05;1.23;;;;;;;;;;4898575;29;20055;-91
2021/10/29 15:57:05;;;;;;;2.10;1.30;;;;;;;;;;4888090;29;20116;-93
2021/10/29 16:02:14;;;;;;;3.95;0.93;;;;;;;;;;4912357;29;20127;-90
2021/10/29 16:18:26;;;;;;;5.43;1.90;;;;;;;;;;4910067;29;20084;-91
2021/10/29 16:20:52;;;;;;;1.98;1.23;;;;;;;;;;4904795;29;20414;-89
2021/10/29 16:23:18;;;;;;;2.75;1.52;;;;;;;;;;4913013;29;20067;-89
2021/10/29 16:26:01;;;;;;;4.32;1.80;;;;;;;;;;4910221;29;20035;-90
2021/10/29 16:28:34;;;;;;;1.92;1.00;;;;;;;;;;4913537;29;20040;-90
2021/10/29 16:31:01;;;;;;;6.50;1.40;;;;;;;;;;4912525;29;20036;-90
2021/10/29 16:33:36;;;;;;;4.47;1.43;;;15.80;59.70;;;;;;4912312;29;20150;-91
2021/10/29 16:36:05;;;;;;;2.13;1.20;;;15.80;59.60;;;;;;4913411;29;20040;-91
2021/10/29 16:38:32;;;;;;;4.88;1.40;;;;;;;;;;4914464;29;20031;-90
2021/10/29 16:40:59;;;;;;;3.15;1.38;;;;;;;;;;4916983;29;20564;-90
2021/10/29 16:43:25;;;;;;;4.15;1.25;;;;;;;;;;4916958;29;20056;-90
2021/10/29 16:45:52;;;;;;;3.15;1.30;;;15.70;59.60;;;;;;4912997;29;20455;-90
2021/10/29 16:48:21;;;;;;;4.40;2.35;;;15.80;59.50;;;;;;4917505;29;20061;-89
2021/10/29 16:50:48;;;;;;;4.25;2.30;;;;;;;;;;4916446;29;20064;-89
2021/10/29 16:53:14;;;;;;;3.00;1.50;;;;;;;;;;4898179;29;20035;-89
2021/10/29 16:55:42;;;;;;;2.88;1.35;;;;;;;;;;4916309;29;20110;-90
2021/10/29 16:58:09;;;;;;;2.92;1.80;;;;;;;;;;4916662;29;20043;-89
2021/10/29 17:00:35;;;;;;;4.72;1.42;;;;;;;;;;4900118;29;20124;-89
2021/10/29 17:03:01;;;;;;;1.85;1.30;;;;;;;;;;4905465;29;20405;-88
2021/10/29 17:05:27;;;;;;;4.07;1.65;;;;;;;;;;4914175;29;20032;-90
2021/10/29 17:07:53;;;;;;;1.40;1.25;;;;;;;;;;4911853;29;20518;-89
2021/10/29 17:10:20;;;;;;;4.30;2.63;;;;;;;;;;4905008;29;20498;-89
2021/10/29 17:12:47;;;;;;;4.35;1.25;;;;;;;;;;4900129;29;21017;-90
2021/10/29 17:15:15;;;;;;;5.17;2.07;;;15.60;59.90;;;;;;4899802;29;20502;-88
2021/10/29 17:17:41;;;;;;;1.65;1.55;;;;;;;;;;4915672;29;20583;-90
2021/10/29 17:20:10;;;;;;;2.27;1.53;;;15.60;60.30;;;;;;4917748;29;20404;-90
2021/10/29 17:22:36;;;;;;;3.63;1.40;;;;;;;;;;4916390;29;20028;-89
2021/10/29 17:25:03;;;;;;;2.50;1.75;;;;;;;;;;4918007;29;20020;-90
2021/10/29 17:27:29;;;;;;;2.43;1.30;;;;;;;;;;4916946;29;20044;-88
2021/10/29 17:29:55;;;;;;;2.97;1.65;;;;;;;;;;4916816;29;20040;-90
2021/10/29 17:32:21;;;;;;;3.15;1.10;;;;;;;;;;4915828;29;20028;-89
2021/10/29 17:34:48;;;;;;;4.30;1.48;;;;;;;;;;4915644;29;20036;-90
2021/10/29 17:37:17;;;;;;;1.95;1.75;;;;;;;;;;4916414;29;20127;-89
2021/10/29 17:39:44;;;;;;;3.97;1.40;;;15.50;60.70;;;;;;4901081;29;20024;-89
2021/10/29 17:42:12;;;;;;;4.43;1.67;;;15.40;60.70;;;;;;4917060;29;20051;-90
2021/10/29 17:44:39;;;;;;;1.60;1.23;;;;;;;;;;4910622;29;20441;-89
2021/10/29 17:47:05;;;;;;;3.97;1.30;;;;;;;;;;4913318;29;20076;-89
2021/10/29 17:49:32;;;;;;;1.90;1.80;;;15.40;60.70;;;;;;4911945;29;20642;-91
2021/10/29 17:52:03;;;;;;;3.50;1.57;;;;;;;;;;4912500;29;20070;-91
2021/10/29 17:55:15;;;;;;;2.40;1.23;;;;;;;;;;4910047;29;20040;-89
2021/10/29 17:57:24;;;;;;;2.25;1.50;;;;;;;;;;4908074;29;20040;-89
2021/10/29 17:59:51;;;;;;;1.95;0.95;;;;;;;;;;4915604;29;20028;-88
2021/10/29 18:02:24;;;;;;;1.67;1.30;;;;;;;;;;4916054;29;20040;-90
2021/10/29 18:04:51;;;;;;;1.80;1.25;;;15.50;60.90;;;;;;4914595;29;20228;-90
2021/10/29 18:07:19;;;;;;;2.40;1.63;;;;;;;;;;4875307;29;20422;-89
2021/10/29 18:09:45;;;;;;;4.28;2.78;;;;;;;;;;4900337;29;20546;-89
2021/10/29 18:12:12;;;;;;;3.58;2.08;;;;;;;;;;4915531;29;20066;-88
2021/10/29 18:14:40;;;;;;;10.13;3.70;;;;;;;;;;4907123;29;20048;-89
2021/10/29 18:17:06;;;;;;;6.25;1.92;;;;;;;;;;4907475;29;20731;-87
2021/10/29 18:19:32;;;;;;;2.22;1.85;;;;;;;;;;4914491;29;20056;-88
2021/10/29 18:21:59;;;;;;;2.63;1.38;;;;;;;;;;4903355;29;20123;-89
2021/10/29 18:24:25;;;;;;;3.67;1.65;;;;;;;;;;4910949;29;20024;-89
2021/10/29 18:26:51;;;;;;;2.42;1.35;;;;;;;;;;4895600;29;20036;-88
2021/10/29 18:29:17;;;;;;;2.38;1.65;;;;;;;;;;4914342;29;20039;-88
2021/10/29 18:31:43;;;;;;;2.60;1.83;;;;;;;;;;4914687;29;20032;-89
2021/10/29 18:34:09;;;;;;;4.00;1.75;;;;;;;;;;4917703;29;20501;-89
2021/10/29 18:36:35;;;;;;;9.05;2.47;;;;;;;;;;4895407;29;20040;-89
2021/10/29 18:39:01;;;;;;;3.60;1.42;;;;;;;;;;4895554;29;20032;-90
2021/10/29 18:41:31;;;;;;;1.92;1.60;;;;;;;;;;4915571;29;20386;-90
2021/10/29 18:43:57;;;;;;;2.35;1.63;;;;;;;;;;4913852;29;20039;-89
2021/10/29 18:46:23;;;;;;;1.73;1.17;;;;;;;;;;4913760;29;20028;-88
2021/10/29 18:48:50;;;;;;;2.85;1.65;;;;;;;;;;4914258;29;20036;-89
2021/10/29 18:51:17;;;;;;;2.03;1.27;;;;;;;;;;4916636;29;20130;-89
2021/10/29 18:53:42;;;;;;;3.80;1.48;;;;;;;;;;4912090;29;20276;-90
2021/10/29 18:56:09;;;;;;;5.38;1.50;;;;;;;;;;4911043;29;20054;-90
2021/10/29 18:58:38;;;;;;;14.93;6.07;;;;;;;;;;4897346;29;20024;-89
2021/10/29 19:01:05;;;;;;;9.10;4.65;;;;;;;;;;4912684;29;20063;-88
2021/10/29 19:03:31;;;;;;;2.72;1.55;;;;;;;;;;4910832;29;20020;-89
2021/10/29 19:05:57;;;;;;;2.03;1.50;;;;;;;;;;4897143;29;20060;-91
2021/10/29 19:08:23;;;;;;;1.83;1.10;;;;;;;;;;4913640;29;20083;-90
2021/10/29 19:10:49;;;;;;;2.08;1.40;;;;;;;;;;4915983;29;20079;-89
2021/10/29 19:13:15;;;;;;;3.45;1.73;;;;;;;;;;4915931;29;20032;-88
2021/10/29 19:15:42;;;;;;;2.80;1.70;;;;;;;;;;4915227;29;20457;-89
2021/10/29 19:18:08;;;;;;;1.70;1.38;;;;;;;;;;4915833;29;20028;-89
2021/10/29 19:20:34;;;;;;;3.97;1.23;;;;;;;;;;4915601;29;20127;-89
2021/10/29 19:23:00;;;;;;;5.35;1.85;;;;;;;;;;4898280;29;20114;-89
2021/10/29 19:25:26;;;;;;;1.92;1.33;;;;;;;;;;4912701;29;20112;-89
2021/10/29 19:27:53;;;;;;;6.78;1.38;;;;;;;;;;4909350;29;20043;-90
2021/10/29 19:30:19;;;;;;;2.30;1.13;;;;;;;;;;4916472;29;20028;-89